createdAt,value
2019-03-02T01:08:18.208Z,5.50
2019-03-02T01:14:57.324Z,5.50
2019-03-02T01:17:30.762Z,5.40
2019-03-02T01:19:59.212Z,5.40
2019-03-02T01:22:31.264Z,5.40
2019-03-02T01:25:04.010Z,5.40
2019-03-02T01:27:36.883Z,5.40
2019-03-02T01:30:16.504Z,5.40
2019-03-02T01:32:48.706Z,5.40
2019-03-02T01:35:21.723Z,5.40
2019-03-02T01:37:51.958Z,5.40
2019-03-02T01:40:23.016Z,5.40
2019-03-02T01:43:01.941Z,5.30
2019-03-02T01:45:34.900Z,5.30
2019-03-02T01:48:18.870Z,5.30
2019-03-02T01:50:51.214Z,5.30
2019-03-02T01:53:26.372Z,5.30
2019-03-02T01:55:56.489Z,5.30
2019-03-02T01:58:37.074Z,5.30
2019-03-02T02:01:11.260Z,5.30
2019-03-02T02:04:00.273Z,5.30
2019-03-02T02:06:31.372Z,5.30
2019-03-02T02:09:05.596Z,5.30
2019-03-02T02:11:35.704Z,5.30
2019-03-02T02:14:08.432Z,5.30
2019-03-02T02:16:41.842Z,5.30
2019-03-02T02:19:13.024Z,5.30
2019-03-02T02:21:45.080Z,5.30
2019-03-02T02:24:25.797Z,5.30
2019-03-02T02:27:04.756Z,5.30
2019-03-02T02:29:35.928Z,5.30
2019-03-02T02:32:06.024Z,5.30
2019-03-02T02:34:36.114Z,5.30
2019-03-02T02:37:09.227Z,5.30
2019-03-02T02:39:39.315Z,5.30
2019-03-02T02:42:10.420Z,5.30
2019-03-02T02:44:41.434Z,5.20
2019-03-02T02:47:12.639Z,5.20
2019-03-02T02:49:44.370Z,5.20
2019-03-02T02:52:15.148Z,5.10
2019-03-02T02:54:47.230Z,5.10
2019-03-02T02:57:19.325Z,5.10
2019-03-02T02:59:49.444Z,5.10
2019-03-02T03:02:19.532Z,5.10
2019-03-02T03:04:57.653Z,5.10
2019-03-02T03:07:30.940Z,5.10
2019-03-02T03:10:02.703Z,5.10
2019-03-02T03:12:32.856Z,5.10
2019-03-02T03:15:15.053Z,5.10
2019-03-02T03:17:45.175Z,5.10
2019-03-02T03:20:15.629Z,5.00
2019-03-02T03:22:47.395Z,5.00
2019-03-02T03:25:19.778Z,5.00
2019-03-02T03:28:08.027Z,5.00
2019-03-02T03:30:40.006Z,4.90
2019-03-02T03:33:13.417Z,4.90
2019-03-02T03:35:43.545Z,5.00
2019-03-02T03:38:17.733Z,4.90
2019-03-02T03:40:53.773Z,4.90
2019-03-02T03:43:24.833Z,5.00
2019-03-02T03:45:56.880Z,4.90
2019-03-02T03:48:27.934Z,4.90
2019-03-02T03:50:58.026Z,4.90
2019-03-02T03:53:33.909Z,4.90
2019-03-02T03:56:05.497Z,4.90
2019-03-02T03:58:44.468Z,4.80
2019-03-02T04:01:17.834Z,4.80
2019-03-02T04:03:47.100Z,4.80
2019-03-02T04:06:18.137Z,4.80
2019-03-02T04:08:48.228Z,4.70
2019-03-02T04:11:18.379Z,4.60
2019-03-02T04:13:49.429Z,4.50
2019-03-02T04:16:23.742Z,4.40
2019-03-02T04:18:58.111Z,4.40
2019-03-02T04:21:33.918Z,4.40
2019-03-02T04:24:04.228Z,4.30
2019-03-02T04:26:36.428Z,4.30
2019-03-02T04:29:15.033Z,4.30
2019-03-02T04:31:48.947Z,4.20
2019-03-02T04:34:23.963Z,4.20
2019-03-02T04:36:57.600Z,4.20
2019-03-02T04:39:33.484Z,4.20
2019-03-02T04:42:04.568Z,4.20
2019-03-02T04:44:34.643Z,4.20
2019-03-02T04:47:04.736Z,4.20
2019-03-02T04:49:40.660Z,4.10
2019-03-02T04:52:15.417Z,4.10
2019-03-02T04:54:45.658Z,4.10
2019-03-02T04:57:21.596Z,4.10
2019-03-02T04:59:56.652Z,4.10
2019-03-02T05:02:25.758Z,4.00
2019-03-02T05:05:01.080Z,4.00
2019-03-02T05:07:31.161Z,4.00
2019-03-02T05:10:01.260Z,4.00
2019-03-02T05:12:31.360Z,4.00
2019-03-02T05:15:01.484Z,4.00
2019-03-02T05:17:31.576Z,4.00
2019-03-02T05:20:04.904Z,4.00
2019-03-02T05:22:34.371Z,4.00
2019-03-02T05:25:06.365Z,4.00
2019-03-02T05:27:36.476Z,4.00
2019-03-02T05:30:19.185Z,4.00
2019-03-02T05:32:52.678Z,4.00
2019-03-02T05:35:23.924Z,4.00
2019-03-02T05:37:56.924Z,4.00
2019-03-02T05:40:27.760Z,4.00
2019-03-02T05:42:59.705Z,4.00
2019-03-02T05:45:29.792Z,4.00
2019-03-02T05:48:04.881Z,4.00
2019-03-02T05:50:32.818Z,4.00
2019-03-02T05:53:02.913Z,4.00
2019-03-02T05:55:32.988Z,4.00
2019-03-02T05:58:03.093Z,4.00
2019-03-02T06:00:33.841Z,4.00
2019-03-02T06:03:04.976Z,4.00
2019-03-02T06:05:35.084Z,4.00
2019-03-02T06:08:05.200Z,4.00
2019-03-02T06:10:35.297Z,4.00
2019-03-02T06:13:05.383Z,3.90
2019-03-02T06:15:39.709Z,3.90
2019-03-02T06:18:11.321Z,3.90
2019-03-02T06:20:42.332Z,3.90
2019-03-02T06:23:13.957Z,3.90
2019-03-02T06:25:44.041Z,3.90
2019-03-02T06:28:14.132Z,3.90
2019-03-02T06:30:44.967Z,3.90
2019-03-02T06:33:35.925Z,3.90
2019-03-02T06:36:08.785Z,3.90
2019-03-02T06:38:39.777Z,3.90
2019-03-02T06:41:11.856Z,3.80
2019-03-02T06:43:41.941Z,3.80
2019-03-02T06:46:12.046Z,3.80
2019-03-02T06:48:48.892Z,3.80
2019-03-02T06:51:18.980Z,3.80
2019-03-02T06:53:56.877Z,3.80
2019-03-02T06:56:28.024Z,3.80
2019-03-02T06:59:07.177Z,3.80
2019-03-02T07:01:42.189Z,3.80
2019-03-02T07:04:13.189Z,3.70
2019-03-02T07:06:46.512Z,3.80
2019-03-02T07:09:15.085Z,3.80
2019-03-02T07:11:51.166Z,3.80
2019-03-02T07:14:21.249Z,3.90
2019-03-02T07:16:52.190Z,3.90
2019-03-02T07:19:24.752Z,3.90
2019-03-02T07:21:57.674Z,4.00
2019-03-02T07:24:29.401Z,4.00
2019-03-02T07:27:00.596Z,4.00
2019-03-02T07:29:32.058Z,4.00
2019-03-02T07:32:02.189Z,4.10
2019-03-02T07:34:32.277Z,4.10
2019-03-02T07:37:05.693Z,4.10
2019-03-02T07:39:45.714Z,4.20
2019-03-02T07:42:16.881Z,4.10
2019-03-02T07:44:58.555Z,4.20
2019-03-02T07:47:31.030Z,4.20
2019-03-02T07:50:01.117Z,4.20
2019-03-02T07:52:31.201Z,4.30
2019-03-02T07:55:01.294Z,4.30
2019-03-02T07:57:31.429Z,4.30
2019-03-02T08:00:02.226Z,4.30
2019-03-02T08:02:33.298Z,4.40
2019-03-02T08:05:03.387Z,4.50
2019-03-02T08:07:34.141Z,4.50
2019-03-02T08:10:08.708Z,4.50
2019-03-02T08:12:38.943Z,4.50
2019-03-02T08:15:24.216Z,4.50
2019-03-02T08:17:54.248Z,4.50
2019-03-02T08:20:26.160Z,4.60
2019-03-02T08:22:56.392Z,4.60
2019-03-02T08:25:38.776Z,4.60
2019-03-02T08:28:15.617Z,4.60
2019-03-02T08:30:45.800Z,4.60
2019-03-02T08:33:26.028Z,4.60
2019-03-02T08:35:56.141Z,4.60
2019-03-02T08:38:26.248Z,4.60
2019-03-02T08:41:01.734Z,4.60
2019-03-02T08:43:31.945Z,4.60
2019-03-02T08:46:07.419Z,4.60
2019-03-02T08:48:41.052Z,4.70
2019-03-02T08:51:14.181Z,4.70
2019-03-02T08:53:44.401Z,4.70
2019-03-02T08:56:14.494Z,4.70
2019-03-02T08:58:45.508Z,4.70
2019-03-02T09:01:18.634Z,4.80
2019-03-02T09:03:47.633Z,4.90
2019-03-02T09:06:17.753Z,5.00
2019-03-02T09:08:47.837Z,5.10
2019-03-02T09:11:18.033Z,5.10
2019-03-02T09:13:49.089Z,5.10
2019-03-02T09:16:19.171Z,5.00
2019-03-02T09:18:50.292Z,5.00
2019-03-02T09:21:20.397Z,5.10
2019-03-02T09:23:51.775Z,5.10
2019-03-02T09:26:22.136Z,5.20
2019-03-02T09:28:56.230Z,5.20
2019-03-02T09:31:27.305Z,5.30
2019-03-02T09:34:01.113Z,5.40
2019-03-02T09:36:31.274Z,5.50
2019-03-02T09:39:02.228Z,5.50
2019-03-02T09:41:32.333Z,5.60
2019-03-02T09:44:03.429Z,5.70
2019-03-02T09:46:52.853Z,5.90
2019-03-02T09:49:28.745Z,6.10
2019-03-02T09:51:58.965Z,6.20
2019-03-02T09:54:30.946Z,6.40
2019-03-02T09:57:01.048Z,6.50
2019-03-02T09:59:31.130Z,6.60
2019-03-02T10:02:01.225Z,6.70
2019-03-02T10:04:31.326Z,6.80
2019-03-02T10:07:03.357Z,6.90
2019-03-02T10:09:34.426Z,6.90
2019-03-02T10:12:04.575Z,6.80
2019-03-02T10:14:35.176Z,6.70
2019-03-02T10:17:05.525Z,6.50
2019-03-02T10:19:42.462Z,6.40
2019-03-02T10:22:12.545Z,6.40
2019-03-02T10:24:42.881Z,6.30
2019-03-02T10:27:12.997Z,6.20
2019-03-02T10:29:48.148Z,6.10
2019-03-02T10:32:19.549Z,6.00
2019-03-02T10:34:51.816Z,6.00
2019-03-02T10:37:25.954Z,6.20
2019-03-02T10:40:11.670Z,6.20
2019-03-02T10:42:43.759Z,6.40
2019-03-02T10:45:19.397Z,6.50
2019-03-02T10:47:49.565Z,6.60
2019-03-02T10:50:27.366Z,6.70
2019-03-02T10:52:58.476Z,6.80
2019-03-02T10:55:28.573Z,6.90
2019-03-02T10:58:02.265Z,6.90
2019-03-02T11:00:39.448Z,6.80
2019-03-02T11:03:12.885Z,6.70
2019-03-02T11:05:47.466Z,6.60
2019-03-02T11:08:37.644Z,6.40
2019-03-02T11:11:19.789Z,6.40
2019-03-02T11:13:57.481Z,6.40
2019-03-02T11:16:29.209Z,6.50
2019-03-02T11:19:17.842Z,6.60
2019-03-02T11:22:05.905Z,6.90
2019-03-02T11:24:47.125Z,7.00
2019-03-02T11:27:27.716Z,7.00
2019-03-02T11:30:02.246Z,7.20
2019-03-02T11:32:52.639Z,7.30
2019-03-02T11:35:24.469Z,7.60
2019-03-02T11:38:02.869Z,7.60
2019-03-02T11:40:41.045Z,7.50
2019-03-02T11:43:28.908Z,7.20
2019-03-02T11:46:06.386Z,7.10
2019-03-02T11:48:38.152Z,7.00
2019-03-02T11:51:19.264Z,7.10
2019-03-02T11:53:56.917Z,7.10
2019-03-02T11:56:35.106Z,7.00
2019-03-02T11:59:09.382Z,7.00
2019-03-02T12:01:46.840Z,6.80
2019-03-02T12:04:18.591Z,6.70
2019-03-02T12:06:59.340Z,6.50
2019-03-02T12:09:32.132Z,6.40
2019-03-02T12:12:09.693Z,6.20
2019-03-02T12:14:57.792Z,6.20
2019-03-02T12:17:30.460Z,6.20
2019-03-02T12:20:08.948Z,6.20
2019-03-02T12:22:40.960Z,6.20
2019-03-02T12:25:16.888Z,6.30
2019-03-02T12:27:49.550Z,6.50
2019-03-02T12:30:37.365Z,6.60
2019-03-02T12:33:22.129Z,6.70
2019-03-02T12:35:54.096Z,7.00
2019-03-02T12:38:28.568Z,7.30
2019-03-02T12:41:04.029Z,7.50
2019-03-02T12:43:50.005Z,7.60
2019-03-02T12:46:33.377Z,7.80
2019-03-02T12:49:06.944Z,8.00
2019-03-02T12:51:59.539Z,8.10
2019-03-02T12:54:31.273Z,8.30
2019-03-02T12:57:08.585Z,8.30
2019-03-02T12:59:49.149Z,8.20
2019-03-02T13:02:26.310Z,8.00
2019-03-02T13:05:09.389Z,7.90
2019-03-02T13:07:41.392Z,7.80
2019-03-02T13:10:21.588Z,7.80
2019-03-02T13:13:05.072Z,7.80
2019-03-02T13:15:50.629Z,7.80
2019-03-02T13:18:33.030Z,7.80
2019-03-02T13:21:04.769Z,7.90
2019-03-02T13:23:52.937Z,7.80
2019-03-02T13:26:45.705Z,7.80
2019-03-02T13:29:23.257Z,7.70
2019-03-02T13:32:09.519Z,7.70
2019-03-02T13:34:43.809Z,7.70
2019-03-02T13:37:28.526Z,7.80
2019-03-02T13:40:11.848Z,7.70
2019-03-02T13:42:57.377Z,7.60
2019-03-02T13:45:34.029Z,7.50
2019-03-02T13:48:22.177Z,7.60
2019-03-02T13:51:11.621Z,7.50
2019-03-02T13:54:09.389Z,7.40
2019-03-02T13:56:44.204Z,7.40
2019-03-02T13:59:34.096Z,7.30
2019-03-02T14:02:15.712Z,7.30
2019-03-02T14:04:56.789Z,7.20
2019-03-02T14:07:31.313Z,7.20
2019-03-02T14:10:01.942Z,7.10
2019-03-02T14:12:50.789Z,7.20
2019-03-02T14:15:35.304Z,7.30
2019-03-02T14:18:07.029Z,7.50
2019-03-02T14:20:47.761Z,7.60
2019-03-02T14:23:34.160Z,7.60
2019-03-02T14:26:07.904Z,7.60
2019-03-02T14:28:42.852Z,7.50
2019-03-02T14:31:25.593Z,7.40
2019-03-02T14:34:11.852Z,7.40
2019-03-02T14:36:48.893Z,7.40
2019-03-02T14:39:21.447Z,7.30
2019-03-02T14:42:12.096Z,7.30
2019-03-02T14:45:06.244Z,7.20
2019-03-02T14:47:38.056Z,7.20
2019-03-02T14:50:23.784Z,7.10
2019-03-02T14:53:06.191Z,7.10
2019-03-02T14:55:49.289Z,7.00
2019-03-02T14:58:29.861Z,6.90
2019-03-02T15:01:19.562Z,6.90
2019-03-02T15:04:07.642Z,6.80
2019-03-02T15:06:55.481Z,6.70
2019-03-02T15:09:33.545Z,6.50
2019-03-02T15:12:05.353Z,6.30
2019-03-02T15:14:42.531Z,6.30
2019-03-02T15:17:20.365Z,6.20
2019-03-02T15:19:57.792Z,6.10
2019-03-02T15:22:29.638Z,6.10
2019-03-02T15:25:04.058Z,6.10
2019-03-02T15:27:36.725Z,6.10
2019-03-02T15:30:27.788Z,6.20
2019-03-02T15:33:15.504Z,6.20
2019-03-02T15:35:54.025Z,6.20
2019-03-02T15:38:36.271Z,6.20
2019-03-02T15:41:27.020Z,6.20
2019-03-02T15:44:00.126Z,6.20
2019-03-02T15:46:35.987Z,6.30
2019-03-02T15:49:11.713Z,6.30
2019-03-02T15:51:49.624Z,6.30
2019-03-02T15:54:37.301Z,6.30
2019-03-02T15:57:09.118Z,6.30
2019-03-02T15:59:48.512Z,6.30
2019-03-02T16:02:20.266Z,6.20
2019-03-02T16:04:54.908Z,6.20
2019-03-02T16:07:38.712Z,6.20
2019-03-02T16:10:24.333Z,6.20
2019-03-02T16:13:07.970Z,6.20
2019-03-02T16:16:11.666Z,6.20
2019-03-02T16:18:43.721Z,6.20
2019-03-02T16:21:19.131Z,6.20
2019-03-02T16:24:02.634Z,6.20
2019-03-02T16:26:39.080Z,6.10
2019-03-02T16:29:14.993Z,6.10
2019-03-02T16:31:46.112Z,6.10
2019-03-02T16:34:17.885Z,6.10
2019-03-02T16:36:50.554Z,6.10
2019-03-02T16:39:26.255Z,6.10
2019-03-02T16:42:07.120Z,6.10
2019-03-02T16:44:47.245Z,6.10
2019-03-02T16:47:19.033Z,6.10
2019-03-02T16:49:50.824Z,6.00
2019-03-02T16:52:26.661Z,6.00
2019-03-02T16:55:09.489Z,6.00
2019-03-02T16:57:55.700Z,6.00
2019-03-02T17:00:27.790Z,6.00
2019-03-02T17:03:17.534Z,6.00
2019-03-02T17:06:09.301Z,6.00
2019-03-02T17:08:46.573Z,6.00
2019-03-02T17:11:22.542Z,5.90
2019-03-02T17:13:57.045Z,5.90
2019-03-02T17:16:32.049Z,5.90
2019-03-02T17:19:10.155Z,5.80
2019-03-02T17:21:47.339Z,5.80
2019-03-02T17:24:30.917Z,5.80
2019-03-02T17:27:03.611Z,5.80
2019-03-02T17:29:44.945Z,5.70
2019-03-02T17:32:28.453Z,5.70
2019-03-02T17:35:03.064Z,5.70
2019-03-02T17:37:37.878Z,5.70
2019-03-02T17:40:19.914Z,5.70
2019-03-02T17:43:03.742Z,5.70
2019-03-02T17:45:38.845Z,5.70
2019-03-02T17:48:22.804Z,5.60
2019-03-02T17:51:13.177Z,5.60
2019-03-02T17:53:45.992Z,5.60
2019-03-02T17:56:22.874Z,5.60
2019-03-02T17:58:58.245Z,5.60
2019-03-02T18:01:44.981Z,5.60
2019-03-02T18:04:20.455Z,5.60
2019-03-02T18:07:01.225Z,5.50
2019-03-02T18:09:35.028Z,5.50
2019-03-02T18:12:29.471Z,5.50
2019-03-02T18:15:00.832Z,5.50
2019-03-02T18:17:47.689Z,5.50
2019-03-02T18:20:20.953Z,5.50
2019-03-02T18:22:54.141Z,5.50
2019-03-02T18:25:24.277Z,5.50
2019-03-02T18:27:54.577Z,5.50
2019-03-02T18:30:25.710Z,5.50
2019-03-02T18:32:57.493Z,5.50
2019-03-02T18:35:27.640Z,5.50
2019-03-02T18:37:58.737Z,5.60
2019-03-02T18:40:28.961Z,5.60
2019-03-02T18:43:04.172Z,5.60
2019-03-02T18:45:39.655Z,5.60
2019-03-02T18:48:14.942Z,5.60
2019-03-02T18:50:58.517Z,5.60
2019-03-02T18:53:38.639Z,5.70
2019-03-02T18:56:10.717Z,5.70
2019-03-02T18:58:43.822Z,5.60
2019-03-02T19:01:14.801Z,5.60
2019-03-02T19:03:44.891Z,5.60
2019-03-02T19:06:15.905Z,5.60
2019-03-02T19:08:47.298Z,5.60
2019-03-02T19:11:19.067Z,5.50
2019-03-02T19:13:49.637Z,5.50
2019-03-02T19:16:21.945Z,5.40
2019-03-02T19:18:53.083Z,5.40
2019-03-02T19:21:24.113Z,5.40
2019-03-02T19:23:54.211Z,5.30
2019-03-02T19:26:27.333Z,5.20
2019-03-02T19:28:59.426Z,5.10
2019-03-02T19:31:32.864Z,4.90
2019-03-02T19:34:06.991Z,4.80
2019-03-02T19:36:44.736Z,4.80
2019-03-02T19:39:21.276Z,4.80
2019-03-02T19:41:51.512Z,4.90
2019-03-02T19:44:40.672Z,5.00
2019-03-02T19:47:16.681Z,5.10
2019-03-02T19:49:46.769Z,5.10
2019-03-02T19:52:16.882Z,5.20
2019-03-02T19:54:47.961Z,5.20
2019-03-02T19:57:18.729Z,5.20
2019-03-02T19:59:49.749Z,5.20
2019-03-02T20:02:19.881Z,5.10
2019-03-02T20:04:50.200Z,5.10
2019-03-02T20:07:21.229Z,5.20
2019-03-02T20:09:53.758Z,5.20
2019-03-02T20:12:24.845Z,5.10
2019-03-02T20:14:57.260Z,5.10
2019-03-02T20:17:28.681Z,5.10
2019-03-02T20:19:58.857Z,5.10
2019-03-02T20:22:29.917Z,5.00
2019-03-02T20:25:00.009Z,5.00
2019-03-02T20:27:30.098Z,5.10
2019-03-02T20:30:03.274Z,5.20
2019-03-02T20:32:33.388Z,5.20
2019-03-02T20:35:06.429Z,5.30
2019-03-02T20:37:36.909Z,5.40
2019-03-02T20:40:14.917Z,5.40
2019-03-02T20:42:45.881Z,5.50
2019-03-02T20:45:20.386Z,5.50
2019-03-02T20:47:50.478Z,5.50
2019-03-02T20:50:25.113Z,5.50
2019-03-02T20:52:55.206Z,5.60
2019-03-02T20:55:25.543Z,5.60
2019-03-02T20:57:56.561Z,5.60
2019-03-02T21:00:33.809Z,5.70
2019-03-02T21:03:04.885Z,5.70
2019-03-02T21:05:36.094Z,5.70
2019-03-02T21:08:07.424Z,5.70
2019-03-02T21:10:37.720Z,5.70
2019-03-02T21:13:12.998Z,5.70
2019-03-02T21:15:47.761Z,5.70
2019-03-02T21:18:19.299Z,5.70
2019-03-02T21:20:49.476Z,5.60
2019-03-02T21:23:20.441Z,5.60
2019-03-02T21:25:50.537Z,5.50
2019-03-02T21:28:21.412Z,5.50
2019-03-02T21:30:51.498Z,5.50
2019-03-02T21:33:21.596Z,5.50
2019-03-02T21:35:51.958Z,5.50
2019-03-02T21:38:30.156Z,5.50
2019-03-02T21:41:01.161Z,5.50
2019-03-02T21:43:31.267Z,5.50
2019-03-02T21:46:01.369Z,5.50
2019-03-02T21:48:31.645Z,5.50
2019-03-02T21:51:07.514Z,5.50
2019-03-02T21:53:43.257Z,5.60
2019-03-02T21:56:13.346Z,5.60
2019-03-02T21:58:43.434Z,5.60
2019-03-02T22:01:13.516Z,5.60
2019-03-02T22:03:44.612Z,5.70
2019-03-02T22:06:15.648Z,5.70
2019-03-02T22:08:52.556Z,5.70
2019-03-02T22:11:22.698Z,5.70
2019-03-02T22:13:54.721Z,5.70
2019-03-02T22:16:27.694Z,5.80
2019-03-02T22:18:58.792Z,5.80
2019-03-02T22:21:31.438Z,5.80
2019-03-02T22:24:01.649Z,5.90
2019-03-02T22:26:32.728Z,5.90
2019-03-02T22:29:03.817Z,5.90
2019-03-02T22:31:35.849Z,5.90
2019-03-02T22:34:05.941Z,5.90
2019-03-02T22:36:36.034Z,6.00
2019-03-02T22:39:07.654Z,6.00
2019-03-02T22:41:42.701Z,6.00
2019-03-02T22:44:12.793Z,6.00
2019-03-02T22:46:42.888Z,6.00
2019-03-02T22:49:12.993Z,6.00
2019-03-02T22:51:43.096Z,6.00
2019-03-02T22:54:14.149Z,6.10
2019-03-02T22:56:54.222Z,6.10
2019-03-02T22:59:41.310Z,6.10
2019-03-02T23:02:19.212Z,6.10
2019-03-02T23:04:50.513Z,6.20
2019-03-02T23:07:20.593Z,6.20
2019-03-02T23:09:50.684Z,6.20
2019-03-02T23:12:22.747Z,6.30
2019-03-02T23:14:58.556Z,6.30
2019-03-02T23:17:33.446Z,6.30
2019-03-02T23:20:06.404Z,6.30
2019-03-02T23:22:40.526Z,6.30
2019-03-02T23:25:16.396Z,6.30
2019-03-02T23:27:50.297Z,6.40
2019-03-02T23:30:28.113Z,6.40
2019-03-02T23:32:59.096Z,6.40
2019-03-02T23:35:29.204Z,6.40
2019-03-02T23:38:02.463Z,6.40
2019-03-02T23:40:32.593Z,6.40
2019-03-02T23:43:02.756Z,6.40
2019-03-02T23:45:42.604Z,6.40
2019-03-02T23:48:14.688Z,6.40
2019-03-02T23:50:44.844Z,6.50
2019-03-02T23:53:14.917Z,6.50
2019-03-02T23:55:44.988Z,6.50
2019-03-02T23:58:15.170Z,6.50
